Time;durP1;ratioP1;P1;durP2;ratioP2;P2;SDS_P1;SDS_P2;PMS_P1;PMS_P2;Temp;Humidity;BMP_temperature;BMP_pressure;BME280_temperature;BME280_humidity;BME280_pressure;Samples;Min_cycle;Max_cycle;Signal;HPM_P1;HPM_P2
2022/12/20 00:00:53;;;;;;;13.63;8.18;;;;;;;0.90;57.55;96745.31;5108849;28;20027;-75
2022/12/20 00:03:19;;;;;;;15.25;7.72;;;;;;;0.84;57.62;96743.16;5108341;28;20024;-77
2022/12/20 00:05:44;;;;;;;17.08;8.38;;;;;;;0.82;57.78;96748.13;5109145;28;20039;-76
2022/12/20 00:08:10;;;;;;;15.23;8.35;;;;;;;0.88;57.71;96757.63;5091417;28;20031;-77
2022/12/20 00:10:40;;;;;;;13.82;8.15;;;;;;;0.92;57.66;96753.13;5089539;28;20059;-77
2022/12/20 00:13:05;;;;;;;18.60;8.85;;;;;;;0.97;57.60;96763.75;5107523;28;20027;-77
2022/12/20 00:15:31;;;;;;;16.00;8.80;;;;;;;1.02;57.34;96755.44;5109647;28;20133;-77
2022/12/20 00:17:57;;;;;;;16.00;8.90;;;;;;;0.99;57.03;96758.81;5106843;28;20023;-77
2022/12/20 00:20:23;;;;;;;15.48;8.45;;;;;;;1.01;57.00;96760.06;5108056;28;20028;-76
2022/12/20 00:22:48;;;;;;;16.75;8.48;;;;;;;1.00;57.04;96758.47;5090054;28;20053;-76
2022/12/20 00:25:14;;;;;;;15.98;8.10;;;;;;;1.02;56.60;96760.84;5090625;28;20024;-75
2022/12/20 00:27:39;;;;;;;16.65;8.90;;;;;;;1.02;56.52;96756.22;5108583;28;20039;-77
2022/12/20 00:30:05;;;;;;;16.17;7.97;;;;;;;1.04;56.44;96754.00;5107163;28;20027;-76
2022/12/20 00:32:31;;;;;;;16.60;8.65;;;;;;;1.04;56.19;96758.63;5109133;28;20016;-76
2022/12/20 00:34:56;;;;;;;15.95;9.23;;;;;;;1.09;55.92;96763.03;5107955;28;20083;-77
2022/12/20 00:37:21;;;;;;;15.13;7.85;;;;;;;0.99;55.51;96754.19;5073927;28;20027;-76
2022/12/20 00:39:47;;;;;;;16.20;9.18;;;;;;;0.97;55.77;96744.78;5089929;28;20555;-76
2022/12/20 00:42:12;;;;;;;15.43;8.75;;;;;;;0.99;55.69;96754.19;5109018;28;20444;-76
2022/12/20 00:44:38;;;;;;;17.13;7.60;;;;;;;0.89;55.03;96753.78;5106850;28;20574;-77
2022/12/20 00:47:03;;;;;;;13.73;7.22;;;;;;;0.74;55.22;96747.03;5090311;28;20510;-76
2022/12/20 00:49:29;;;;;;;13.18;7.20;;;;;;;0.74;55.49;96747.81;5107084;28;20481;-76
2022/12/20 00:51:54;;;;;;;13.77;7.90;;;;;;;0.73;54.90;96740.03;5072802;28;20023;-77
2022/12/20 00:54:19;;;;;;;12.02;7.15;;;;;;;0.70;55.41;96751.53;5092424;28;20034;-77
2022/12/20 00:56:45;;;;;;;14.70;8.07;;;;;;;0.61;55.48;96757.00;5109251;28;20024;-77
2022/12/20 00:59:10;;;;;;;10.55;6.63;;;;;;;0.61;55.36;96748.88;5107441;28;20024;-76
2022/12/20 01:01:36;;;;;;;14.73;6.80;;;;;;;0.59;55.44;96747.63;5107924;28;20020;-78
2022/12/20 01:04:01;;;;;;;12.88;7.57;;;;;;;0.57;55.67;96749.84;5109425;28;20024;-76
2022/12/20 01:06:27;;;;;;;13.10;6.72;;;;;;;0.47;55.75;96751.84;5106645;28;20035;-76
2022/12/20 01:08:53;;;;;;;13.80;6.88;;;;;;;0.41;55.91;96745.03;5089912;28;20084;-77
2022/12/20 01:11:20;;;;;;;14.85;7.18;;;;;;;0.35;56.04;96740.94;5090626;28;20035;-78
2022/12/20 01:13:47;;;;;;;13.65;6.70;;;;;;;0.37;56.09;96741.38;5089545;28;20036;-77
2022/12/20 01:16:23;;;;;;;13.60;7.32;;;;;;;0.30;56.12;96730.28;5107557;28;20493;-77
2022/12/20 01:18:49;;;;;;;13.82;7.20;;;;;;;0.30;56.03;96737.63;5072631;28;20040;-77
2022/12/20 01:21:15;;;;;;;10.05;6.55;;;;;;;0.23;56.17;96738.09;5089438;28;20324;-76
2022/12/20 01:23:41;;;;;;;13.50;7.00;;;;;;;0.08;56.39;96734.06;5089007;28;20027;-76
2022/12/20 01:26:08;;;;;;;9.55;6.18;;;;;;;0.12;56.41;96734.22;5089191;28;20024;-76
2022/12/20 01:28:33;;;;;;;13.02;6.32;;;;;;;0.16;56.51;96727.00;5089664;28;20031;-76
2022/12/20 01:30:59;;;;;;;15.27;7.43;;;;;;;0.22;56.19;96723.00;5088818;28;20508;-76
2022/12/20 01:33:24;;;;;;;11.98;6.22;;;;;;;0.14;56.42;96718.44;5107246;28;20027;-76
2022/12/20 01:36:00;;;;;;;12.25;6.15;;;;;;;0.09;56.72;96721.31;5105482;28;20027;-76
2022/12/20 01:38:26;;;;;;;12.57;7.22;;;;;;;0.01;56.68;96714.84;5106432;28;20032;-76
2022/12/20 01:40:52;;;;;;;11.82;5.72;;;;;;;-0.05;56.67;96716.94;5071530;28;20497;-75
2022/12/20 01:43:17;;;;;;;11.32;6.70;;;;;;;-0.14;56.80;96710.78;5089211;28;20055;-77
2022/12/20 01:45:43;;;;;;;11.77;6.78;;;;;;;-0.11;56.66;96712.84;5106341;28;20020;-76
2022/12/20 01:48:08;;;;;;;15.32;8.57;;;;;;;-0.19;56.73;96708.25;5105679;28;20031;-77
2022/12/20 01:50:34;;;;;;;11.30;6.38;;;;;;;-0.28;56.75;96702.88;5089576;28;20034;-75
2022/12/20 01:53:01;;;;;;;10.10;6.28;;;;;;;-0.26;56.95;96699.84;5088703;28;20426;-76
2022/12/20 01:55:26;;;;;;;12.05;6.93;;;;;;;-0.21;56.86;96705.09;5108651;28;20507;-75
2022/12/20 01:58:00;;;;;;;11.93;6.60;;;;;;;-0.29;56.76;96705.88;5107369;28;20032;-76
2022/12/20 02:00:25;;;;;;;13.38;7.32;;;;;;;-0.29;56.86;96705.88;5098512;28;20527;-77
2022/12/20 02:02:51;;;;;;;12.65;7.10;;;;;;;-0.28;56.87;96697.47;5107293;28;20032;-76
2022/12/20 02:05:18;;;;;;;12.77;5.82;;;;;;;-0.20;56.56;96695.06;5071713;28;20151;-75
2022/12/20 02:07:44;;;;;;;9.77;6.00;;;;;;;-0.22;56.66;96700.78;5106759;28;20110;-77
2022/12/20 02:10:11;;;;;;;13.20;6.85;;;;;;;-0.23;56.84;96691.09;5105265;28;20054;-76
2022/12/20 02:12:43;;;;;;;13.15;7.18;;;;;;;-0.21;56.64;96694.28;5089366;28;20107;-76
2022/12/20 02:15:36;;;;;;;12.10;6.55;;;;;;;-0.22;56.35;96705.41;5106497;28;20334;-76
2022/12/20 02:18:21;;;;;;;12.93;6.20;;;;;;;-0.18;56.44;96701.72;5105600;28;20470;-76
2022/12/20 02:21:05;;;;;;;11.95;6.95;;;;;;;-0.15;56.56;96697.59;5107846;28;20031;-77
2022/12/20 02:23:36;;;;;;;;;;;;;;;-0.13;56.65;96690.72;5105119;28;20044;-76
2022/12/20 02:26:46;;;;;;;10.52;6.20;;;;;;;-0.13;56.58;96684.53;5106933;28;19947;-76
2022/12/20 02:29:30;;;;;;;11.18;6.22;;;;;;;-0.06;56.26;96695.63;5101590;28;20533;-77
2022/12/20 02:32:19;;;;;;;10.80;5.68;;;;;;;-0.02;56.41;96691.16;5106075;28;20476;-76
2022/12/20 02:34:44;;;;;;;12.77;6.72;;;;;;;-0.08;56.34;96682.44;5090425;28;20131;-77
2022/12/20 02:37:10;;;;;;;11.43;6.43;;;;;;;-0.04;56.35;96698.81;5088153;28;20019;-77
2022/12/20 02:39:37;;;;;;;12.57;6.85;;;;;;;0.01;56.55;96695.13;5105446;28;20030;-77
2022/12/20 02:42:13;;;;;;;9.25;5.68;;;;;;;-0.07;55.98;96694.03;5088461;28;20367;-76
2022/12/20 02:45:14;;;;;;;9.68;6.47;;;;;;;-0.18;56.29;96692.81;5087744;28;20027;-76
2022/12/20 02:47:44;;;;;;;9.63;6.10;;;;;;;-0.27;56.51;96690.16;5028132;28;20133;-76
2022/12/20 02:50:09;;;;;;;12.98;6.85;;;;;;;-0.32;56.83;96693.03;5026534;28;20072;-77
2022/12/20 02:52:35;;;;;;;10.27;6.20;;;;;;;-0.39;57.17;96681.94;5027007;28;20060;-76
2022/12/20 02:55:00;;;;;;;11.68;7.03;;;;;;;-0.31;57.02;96684.59;5012292;28;20036;-76
2022/12/20 02:58:04;;;;;;;11.38;7.13;;;;;;;-0.27;57.26;96677.44;5030885;28;20738;-76
2022/12/20 03:00:32;;;;;;;12.30;7.45;;;;;;;-0.20;57.04;96676.13;5043413;28;20053;-77
2022/12/20 03:05:43;;;;;;;12.02;6.78;;;;;;;-0.22;56.90;96683.78;5029029;28;20142;-75
2022/12/20 03:08:09;;;;;;;10.88;7.30;;;;;;;-0.21;56.41;96667.22;5043723;28;20037;-77
2022/12/20 03:10:34;;;;;;;11.60;6.00;;;;;;;-0.28;56.60;96667.75;5026174;28;20044;-75
2022/12/20 03:12:59;;;;;;;11.38;6.22;;;;;;;-0.25;56.54;96665.50;5027016;28;20521;-76
2022/12/20 03:15:25;;;;;;;11.18;6.30;;;;;;;-0.32;56.49;96656.00;5026208;28;20422;-76
2022/12/20 03:17:50;;;;;;;10.10;5.78;;;;;;;-0.15;56.13;96663.22;5027065;28;20451;-76
2022/12/20 03:20:16;;;;;;;12.23;6.80;;;;;;;-0.08;55.69;96668.13;5025705;28;20040;-76
2022/12/20 03:22:41;;;;;;;10.70;6.13;;;;;;;-0.15;55.71;96643.53;5012255;28;20029;-78
2022/12/20 03:25:07;;;;;;;12.52;7.38;;;;;;;-0.07;55.63;96659.69;5088102;28;20035;-76
2022/12/20 03:27:33;;;;;;;12.60;6.72;;;;;;;-0.14;55.58;96664.81;5087835;28;20034;-76
2022/12/20 03:29:58;;;;;;;13.20;7.28;;;;;;;-0.22;55.71;96657.53;5107314;28;20028;-76
2022/12/20 03:32:24;;;;;;;10.52;6.47;;;;;;;-0.25;55.82;96658.19;5087318;28;20444;-77
2022/12/20 03:34:49;;;;;;;12.15;6.85;;;;;;;-0.27;55.90;96663.13;5105854;28;20036;-77
2022/12/20 03:37:15;;;;;;;14.32;6.38;;;;;;;-0.27;56.01;96663.13;5070367;28;20023;-77
2022/12/20 03:39:40;;;;;;;13.82;7.88;;;;;;;-0.44;56.35;96660.50;5105368;28;20027;-77
2022/12/20 03:42:06;;;;;;;12.65;7.18;;;;;;;-0.47;56.48;96656.53;5087259;28;20023;-77
2022/12/20 03:44:31;;;;;;;12.35;7.90;;;;;;;-0.49;56.53;96660.69;5105954;28;20042;-76
2022/12/20 03:46:56;;;;;;;11.95;7.60;;;;;;;-0.58;56.88;96658.78;5074609;28;20031;-76
2022/12/20 03:49:22;;;;;;;12.07;6.78;;;;;;;-0.69;57.06;96654.88;5108900;28;20031;-76
2022/12/20 03:51:47;;;;;;;14.00;8.05;;;;;;;-0.76;57.10;96651.06;5112330;28;20039;-76
2022/12/20 03:54:13;;;;;;;9.98;6.10;;;;;;;-0.74;57.22;96646.16;5111774;28;20032;-76
2022/12/20 03:56:38;;;;;;;14.45;6.93;;;;;;;-0.88;57.26;96646.31;5109733;28;20040;-76
2022/12/20 03:59:04;;;;;;;10.98;7.32;;;;;;;-0.84;57.36;96656.16;5107317;28;20417;-77
2022/12/20 04:01:29;;;;;;;15.25;8.93;;;;;;;-0.96;57.94;96661.44;5108639;28;20409;-77
2022/12/20 04:03:54;;;;;;;13.57;7.78;;;;;;;-1.11;58.18;96653.84;5091205;28;20054;-76
2022/12/20 04:06:20;;;;;;;16.23;6.95;;;;;;;-1.16;58.24;96660.19;5090406;28;20055;-77
2022/12/20 04:08:46;;;;;;;15.10;8.07;;;;;;;-1.10;58.27;96660.81;5108928;28;20030;-77
2022/12/20 04:11:17;;;;;;;13.82;7.00;;;;;;;-1.24;58.52;96655.59;5089996;28;20030;-77
2022/12/20 04:13:50;;;;;;;13.15;7.22;;;;;;;-1.27;58.50;96658.13;5108994;28;20023;-76
2022/12/20 04:16:17;;;;;;;15.07;8.35;;;;;;;-1.35;58.60;96654.34;5089920;28;20066;-77
2022/12/20 04:18:42;;;;;;;13.70;8.00;;;;;;;-1.30;59.02;96658.78;5091273;28;20031;-75
2022/12/20 04:21:08;;;;;;;12.88;8.07;;;;;;;-1.23;58.82;96653.69;5107377;28;20031;-76
2022/12/20 04:23:34;;;;;;;16.90;8.93;;;;;;;-1.13;58.48;96659.56;5073706;28;20537;-76
2022/12/20 04:26:01;;;;;;;15.98;8.70;;;;;;;-1.16;58.56;96654.78;5090882;28;20027;-76
2022/12/20 04:28:27;;;;;;;15.55;9.23;;;;;;;-1.21;58.78;96646.84;5106681;28;20103;-76
2022/12/20 04:30:52;;;;;;;14.10;8.25;;;;;;;-1.11;58.40;96645.72;5091335;28;20028;-75
2022/12/20 04:33:17;;;;;;;15.95;9.18;;;;;;;-1.13;58.45;96648.75;5107910;28;20035;-75
2022/12/20 04:35:43;;;;;;;14.50;9.32;;;;;;;-1.13;58.57;96642.56;5109370;28;20047;-76
2022/12/20 04:38:08;;;;;;;15.75;8.55;;;;;;;-1.09;58.31;96647.00;5108685;28;20035;-77
2022/12/20 04:40:34;;;;;;;17.45;9.60;;;;;;;-1.08;58.28;96637.81;5108992;28;20038;-75
2022/12/20 04:42:59;;;;;;;19.35;9.90;;;;;;;-1.13;58.19;96637.16;5108891;28;20024;-77
2022/12/20 04:45:25;;;;;;;17.05;10.00;;;;;;;-1.09;58.14;96635.41;5090032;28;20020;-75
2022/12/20 04:47:50;;;;;;;18.25;10.18;;;;;;;-1.09;58.30;96638.09;5109855;28;20012;-76
2022/12/20 04:50:15;;;;;;;14.88;8.40;;;;;;;-1.16;58.30;96643.19;5106766;28;20016;-76
2022/12/20 04:55:25;;;;;;;16.52;9.35;;;;;;;-1.18;58.47;96637.34;5107929;28;20421;-77
2022/12/20 04:57:50;;;;;;;19.48;9.77;;;;;;;-1.12;58.30;96639.53;5107591;28;20031;-76
2022/12/20 05:00:16;;;;;;;12.88;8.50;;;;;;;-1.11;58.01;96633.03;5108295;28;20474;-76
2022/12/20 05:02:42;;;;;;;15.25;9.20;;;;;;;-1.17;58.11;96622.72;5106415;28;20461;-75
2022/12/20 05:05:07;;;;;;;13.80;8.52;;;;;;;-1.14;57.98;96635.59;5090086;28;20046;-76
2022/12/20 05:07:33;;;;;;;18.30;10.07;;;;;;;-1.15;58.18;96636.69;5105942;28;20024;-75
2022/12/20 05:09:58;;;;;;;15.95;9.00;;;;;;;-1.13;58.20;96637.97;5090285;28;20019;-75
2022/12/20 05:12:24;;;;;;;16.52;9.80;;;;;;;-1.23;58.29;96640.97;5072372;28;20031;-76
2022/12/20 05:14:49;;;;;;;14.40;8.95;;;;;;;-1.26;58.25;96638.94;5090271;28;20038;-77
2022/12/20 05:17:15;;;;;;;19.42;10.35;;;;;;;-1.30;58.26;96639.91;5089490;28;20024;-75
2022/12/20 05:19:40;;;;;;;17.85;9.40;;;;;;;-1.35;58.56;96636.25;5089354;28;20455;-76
2022/12/20 05:27:33;;;;;;;16.88;9.02;;;;;;;-1.39;59.00;96642.59;5107067;28;19918;-75
2022/12/20 05:29:59;;;;;;;18.55;10.45;;;;;;;-1.44;59.23;96640.84;5105578;28;20031;-75
2022/12/20 05:32:24;;;;;;;18.98;10.85;;;;;;;-1.51;59.08;96654.00;5089163;28;20027;-75
2022/12/20 05:34:50;;;;;;;22.30;11.18;;;;;;;-1.44;59.22;96642.75;5106352;28;20024;-74
2022/12/20 05:37:15;;;;;;;27.10;13.95;;;;;;;-1.46;59.22;96651.16;5105180;28;20015;-76
2022/12/20 05:39:41;;;;;;;15.95;9.75;;;;;;;-1.44;59.03;96642.75;5108319;28;20534;-76
2022/12/20 05:42:06;;;;;;;18.65;10.43;;;;;;;-1.40;59.24;96649.09;5104754;28;20034;-77
2022/12/20 05:44:31;;;;;;;18.58;9.70;;;;;;;-1.33;59.07;96652.09;5090875;28;20038;-76
2022/12/20 05:46:57;;;;;;;14.98;9.25;;;;;;;-1.26;58.60;96652.44;5091670;28;20760;-77
2022/12/20 05:49:22;;;;;;;17.75;9.80;;;;;;;-1.17;58.61;96645.09;5073369;28;20031;-77
2022/12/20 05:51:48;;;;;;;14.25;9.23;;;;;;;-1.09;58.19;96649.72;5107577;28;20027;-78
2022/12/20 05:54:13;;;;;;;17.88;10.00;;;;;;;-1.07;57.76;96635.88;5106674;28;20027;-75
2022/12/20 05:56:39;;;;;;;15.32;10.13;;;;;;;-0.97;57.78;96650.97;5106540;28;20076;-74
2022/12/20 05:59:04;;;;;;;14.10;8.93;;;;;;;-0.89;57.38;96650.94;5104351;28;20102;-77
2022/12/20 06:01:29;;;;;;;19.20;10.35;;;;;;;-0.84;57.71;96658.88;5107834;28;20108;-76
2022/12/20 06:03:55;;;;;;;16.60;9.63;;;;;;;-0.79;57.59;96660.63;5106499;28;20023;-77
2022/12/20 06:06:21;;;;;;;17.52;9.48;;;;;;;-0.72;57.23;96657.41;5107221;28;20048;-76
2022/12/20 06:08:46;;;;;;;15.77;9.75;;;;;;;-0.65;56.94;96658.50;5106608;28;20030;-77
2022/12/20 06:11:12;;;;;;;16.17;10.05;;;;;;;-0.59;56.74;96654.50;5088408;28;20024;-77
2022/12/20 06:13:37;;;;;;;16.60;10.27;;;;;;;-0.52;56.77;96647.81;5105901;28;20409;-77
2022/12/20 06:16:03;;;;;;;19.95;10.60;;;;;;;-0.48;56.59;96654.94;5104698;28;20167;-77
2022/12/20 06:18:29;;;;;;;18.70;11.02;;;;;;;-0.49;56.54;96658.75;5106359;28;20035;-77
2022/12/20 06:20:54;;;;;;;23.52;11.77;;;;;;;-0.49;56.44;96650.66;5104600;28;20477;-77
2022/12/20 06:23:19;;;;;;;19.17;10.88;;;;;;;-0.44;56.37;96655.88;5089126;28;20455;-75
2022/12/20 06:25:45;;;;;;;17.98;10.75;;;;;;;-0.39;56.40;96663.03;5104637;28;20027;-76
2022/12/20 06:28:11;;;;;;;18.98;10.45;;;;;;;-0.27;56.14;96663.13;5088497;28;20054;-75
2022/12/20 06:30:36;;;;;;;17.20;10.65;;;;;;;-0.22;55.82;96654.06;5105130;28;20020;-77
2022/12/20 06:33:02;;;;;;;20.13;10.40;;;;;;;-0.07;55.53;96661.59;5104815;28;20032;-75
2022/12/20 06:35:28;;;;;;;16.90;10.68;;;;;;;-0.05;55.73;96662.88;5107038;28;20020;-77
2022/12/20 06:37:53;;;;;;;15.63;9.70;;;;;;;-0.01;55.57;96654.88;5087620;28;20028;-76
2022/12/20 06:40:19;;;;;;;19.08;11.13;;;;;;;0.05;55.14;96650.06;5089320;28;20088;-76
2022/12/20 06:42:45;;;;;;;18.60;10.93;;;;;;;0.09;54.95;96657.22;5111296;28;20024;-78
2022/12/20 06:45:10;;;;;;;15.75;10.00;;;;;;;0.15;54.99;96653.19;5107391;28;20030;-77
2022/12/20 06:47:36;;;;;;;19.80;11.10;;;;;;;0.23;54.49;96644.25;5071058;28;20030;-76
2022/12/20 06:50:02;;;;;;;19.55;10.50;;;;;;;0.29;53.99;96639.44;5106611;28;20023;-75
2022/12/20 06:52:28;;;;;;;17.52;10.15;;;;;;;0.31;53.82;96631.00;5088749;28;20094;-76
2022/12/20 06:54:53;;;;;;;20.00;10.50;;;;;;;0.40;53.63;96640.63;5105497;28;20035;-76
2022/12/20 06:57:18;;;;;;;21.08;11.35;;;;;;;0.45;53.72;96642.31;5105536;28;20032;-75
2022/12/20 06:59:44;;;;;;;17.85;11.10;;;;;;;0.51;53.37;96635.59;5103979;28;20032;-77
2022/12/20 07:02:11;;;;;;;18.33;10.30;;;;;;;0.53;52.82;96634.16;5112285;28;20091;-75
2022/12/20 07:04:36;;;;;;;15.88;9.27;;;;;;;0.53;53.07;96638.78;5104435;28;20485;-74
2022/12/20 07:07:02;;;;;;;15.13;8.75;;;;;;;0.62;52.94;96628.66;5089018;28;20028;-75
2022/12/20 07:09:28;;;;;;;16.73;9.82;;;;;;;0.71;52.00;96632.09;5106415;28;20023;-76
2022/12/20 07:11:54;;;;;;;15.50;9.65;;;;;;;0.77;52.04;96625.34;5105762;28;20466;-75
2022/12/20 07:14:19;;;;;;;15.82;8.85;;;;;;;0.87;51.96;96626.88;5105755;28;20041;-76
2022/12/20 07:16:45;;;;;;;23.15;11.20;;;;;;;0.98;51.82;96627.25;5104908;28;20547;-76
2022/12/20 07:19:11;;;;;;;24.98;12.68;;;;;;;1.05;51.73;96622.06;5106117;28;20514;-75
2022/12/20 07:21:37;;;;;;;23.67;13.25;;;;;;;1.12;51.68;96624.22;5108193;28;20036;-77
2022/12/20 07:24:02;;;;;;;23.08;13.60;;;;;;;1.20;51.34;96628.75;5111138;28;20553;-77
2022/12/20 07:26:28;;;;;;;28.38;13.95;;;;;;;1.32;51.09;96626.88;5091334;28;20098;-75
2022/12/20 07:28:53;;;;;;;21.98;13.20;;;;;;;1.52;49.97;96630.63;5109462;28;20478;-76
2022/12/20 07:31:19;;;;;;;20.67;12.85;;;;;;;1.73;49.91;96629.75;5091921;28;20031;-76
2022/12/20 07:33:44;;;;;;;28.27;14.68;;;;;;;1.90;49.04;96629.53;5108383;28;20023;-76
2022/12/20 07:36:11;;;;;;;33.03;14.93;;;;;;;2.07;49.11;96637.44;5092259;28;20027;-75
2022/12/20 07:38:36;;;;;;;24.25;13.65;;;;;;;2.32;48.18;96635.47;5097490;28;20027;-75
2022/12/20 07:41:09;;;;;;;23.30;11.98;;;;;;;2.59;47.40;96633.94;5109578;28;20383;-77
2022/12/20 07:43:34;;;;;;;26.02;14.23;;;;;;;2.82;46.67;96626.06;5091095;28;20020;-77
2022/12/20 07:46:00;;;;;;;22.27;12.50;;;;;;;3.15;45.71;96630.41;5092001;28;20023;-77
2022/12/20 07:48:25;;;;;;;18.58;11.75;;;;;;;3.39;45.81;96624.09;5090905;28;20470;-76
2022/12/20 07:50:59;;;;;;;25.52;13.93;;;;;;;3.69;44.92;96619.00;5108672;28;20020;-76
2022/12/20 07:53:24;;;;;;;15.55;10.18;;;;;;;3.84;43.64;96612.78;5091988;28;20504;-76
2022/12/20 07:55:50;;;;;;;22.92;12.27;;;;;;;4.17;43.56;96617.78;5107396;28;20411;-75
2022/12/20 07:58:16;;;;;;;20.85;10.48;;;;;;;4.51;42.26;96613.50;5091527;28;20106;-76
2022/12/20 08:00:41;;;;;;;22.90;12.63;;;;;;;5.42;41.15;96619.56;5073099;28;20498;-77
2022/12/20 08:03:07;;;;;;;25.95;12.43;;;;;;;7.46;37.67;96621.28;5108764;28;20462;-77
2022/12/20 08:05:33;;;;;;;29.45;13.25;;;;;;;9.36;34.07;96609.59;5108732;28;20074;-76
2022/12/20 08:07:59;;;;;;;23.25;12.90;;;;;;;10.83;31.60;96619.38;5091229;28;20024;-76
2022/12/20 08:10:25;;;;;;;22.52;12.43;;;;;;;12.14;29.79;96622.63;5108168;28;20036;-77
2022/12/20 08:12:50;;;;;;;22.10;11.70;;;;;;;13.63;27.19;96617.47;5107210;28;20042;-76
2022/12/20 08:15:16;;;;;;;15.18;10.10;;;;;;;14.98;25.56;96617.25;5109493;28;20020;-77
2022/12/20 08:17:41;;;;;;;18.10;11.32;;;;;;;16.38;23.74;96617.75;5106853;28;20101;-76
2022/12/20 08:20:07;;;;;;;16.60;10.95;;;;;;;17.46;22.53;96611.69;5108504;28;20399;-75
2022/12/20 08:22:33;;;;;;;17.83;11.40;;;;;;;18.45;21.54;96618.19;5073097;28;20078;-77
2022/12/20 08:24:59;;;;;;;15.77;9.98;;;;;;;19.42;19.81;96612.06;5091340;28;20047;-78
2022/12/20 08:27:24;;;;;;;13.07;9.73;;;;;;;20.09;18.85;96609.50;5107377;28;20019;-78
2022/12/20 08:29:50;;;;;;;12.77;9.50;;;;;;;20.80;18.01;96599.44;5108784;28;20393;-76
2022/12/20 08:32:15;;;;;;;15.48;9.43;;;;;;;21.81;17.28;96610.56;5107275;28;20413;-78
2022/12/20 08:34:41;;;;;;;14.05;9.88;;;;;;;22.56;16.01;96601.38;5113230;28;20409;-77
2022/12/20 08:37:06;;;;;;;13.45;9.10;;;;;;;22.97;15.75;96596.91;5109066;28;20042;-77
2022/12/20 08:39:32;;;;;;;14.00;9.25;;;;;;;23.69;15.24;96608.75;5106294;28;20081;-77
2022/12/20 08:41:57;;;;;;;11.63;8.15;;;;;;;24.45;14.94;96608.94;5108147;28;20020;-76
2022/12/20 08:44:23;;;;;;;10.85;8.40;;;;;;;25.08;14.25;96609.28;5089798;28;20039;-76
2022/12/20 08:46:48;;;;;;;12.50;7.85;;;;;;;25.61;13.68;96598.84;5108745;28;20401;-77
2022/12/20 08:49:14;;;;;;;11.70;8.70;;;;;;;26.06;13.55;96604.91;5108460;28;20024;-77
2022/12/20 08:51:39;;;;;;;9.85;8.27;;;;;;;26.47;13.06;96600.63;5108086;28;20067;-77
2022/12/20 08:54:05;;;;;;;10.55;8.73;;;;;;;26.97;12.68;96602.94;5090375;28;20481;-77
2022/12/20 08:56:30;;;;;;;11.35;8.55;;;;;;;27.32;12.25;96604.63;5106422;28;20417;-77
2022/12/20 08:58:56;;;;;;;11.73;8.35;;;;;;;27.46;11.68;96597.19;5107601;28;20030;-77
2022/12/20 09:01:22;;;;;;;11.50;8.40;;;;;;;27.93;11.51;96600.38;5107497;28;20038;-76
2022/12/20 09:03:47;;;;;;;11.80;8.38;;;;;;;28.47;11.25;96595.22;5107979;28;20023;-76
2022/12/20 09:06:18;;;;;;;11.32;9.18;;;;;;;29.09;11.30;96589.41;5106495;28;20405;-77
2022/12/20 09:08:44;;;;;;;10.15;8.30;;;;;;;29.53;10.62;96585.59;5072539;28;20031;-77
2022/12/20 09:11:17;;;;;;;12.52;9.02;;;;;;;29.81;10.33;96593.13;5089925;28;20468;-76
2022/12/20 09:13:43;;;;;;;11.73;8.90;;;;;;;30.23;9.67;96586.13;5089185;28;20023;-76
2022/12/20 09:16:09;;;;;;;12.30;9.93;;;;;;;30.20;9.49;96578.66;5107272;28;20035;-78
2022/12/20 09:18:35;;;;;;;13.25;9.65;;;;;;;30.70;9.77;96571.75;5105803;28;20019;-78
2022/12/20 09:21:04;;;;;;;11.27;8.98;;;;;;;31.12;9.32;96577.97;5090558;28;20058;-77
2022/12/20 09:23:30;;;;;;;10.30;8.23;;;;;;;31.61;9.62;96566.47;5089597;28;20030;-76
2022/12/20 09:26:00;;;;;;;11.35;8.98;;;;;;;32.10;9.27;96566.22;5072592;28;20026;-77
2022/12/20 09:28:26;;;;;;;11.93;8.90;;;;;;;32.19;8.91;96563.75;5074116;28;20024;-78
2022/12/20 09:30:51;;;;;;;12.13;8.68;;;;;;;32.51;8.44;96554.41;5113149;28;20058;-78
2022/12/20 09:33:17;;;;;;;10.90;8.45;;;;;;;32.90;8.22;96552.91;5108456;28;20024;-76
2022/12/20 09:35:46;;;;;;;10.80;8.10;;;;;;;33.24;8.38;96547.25;5105780;28;20019;-78
2022/12/20 09:38:11;;;;;;;12.45;8.85;;;;;;;33.46;7.83;96551.72;5090099;28;20042;-77
2022/12/20 09:40:37;;;;;;;10.13;8.38;;;;;;;33.33;7.92;96541.13;5105990;28;20115;-77
2022/12/20 09:43:03;;;;;;;10.48;8.90;;;;;;;33.72;7.57;96539.44;5105908;28;20032;-76
2022/12/20 09:45:30;;;;;;;10.25;8.32;;;;;;;34.12;7.29;96544.97;5089468;28;20023;-77
2022/12/20 09:47:56;;;;;;;9.82;7.95;;;;;;;34.22;7.66;96546.78;5089023;28;20038;-77
2022/12/20 09:50:42;;;;;;;10.55;9.07;;;;;;;34.53;7.60;96536.41;5106650;28;20016;-78
2022/12/20 09:53:46;;;;;;;10.10;8.73;;;;;;;34.78;7.36;96524.56;5105332;28;20020;-77
2022/12/20 09:56:21;;;;;;;14.60;10.25;;;;;;;34.79;6.56;96529.69;5104030;28;20035;-77
2022/12/20 09:58:58;;;;;;;11.32;9.18;;;;;;;34.67;7.39;96522.03;5073392;28;20490;-78
2022/12/20 10:01:26;;;;;;;14.77;10.20;;;;;;;34.43;7.52;96515.41;5104606;28;20019;-77
2022/12/20 10:03:51;;;;;;;10.65;8.70;;;;;;;34.66;7.17;96517.63;5089529;28;20030;-76
2022/12/20 10:06:27;;;;;;;12.48;8.85;;;;;;;34.72;6.94;96503.97;5104754;28;20036;-77
2022/12/20 10:08:58;;;;;;;12.70;9.32;;;;;;;34.28;7.34;96496.03;5089244;28;20028;-79
2022/12/20 10:11:27;;;;;;;10.52;8.57;;;;;;;34.26;7.04;96492.22;5088844;28;20020;-77
2022/12/20 10:14:07;;;;;;;13.93;10.02;;;;;;;34.07;7.29;96490.38;5106235;28;20409;-76
2022/12/20 10:16:41;;;;;;;14.27;9.82;;;;;;;34.28;7.50;96470.34;5107633;28;20462;-77
2022/12/20 10:19:22;;;;;;;11.90;9.85;;;;;;;33.91;7.62;96468.72;5088304;28;20028;-77
2022/12/20 10:21:57;;;;;;;11.55;9.68;;;;;;;33.35;7.46;96452.97;5105912;28;20051;-78
2022/12/20 10:24:30;;;;;;;12.05;8.60;;;;;;;32.93;7.64;96446.44;5107421;28;20046;-78
2022/12/20 10:26:58;;;;;;;10.35;9.25;;;;;;;32.41;7.64;96440.25;5095630;28;20523;-76
2022/12/20 10:29:24;;;;;;;13.02;10.73;;;;;;;32.61;7.53;96429.50;5089875;28;20032;-77
2022/12/20 10:31:53;;;;;;;12.75;8.90;;;;;;;32.60;7.81;96427.97;5104647;28;20026;-78
2022/12/20 10:34:19;;;;;;;11.40;9.15;;;;;;;32.15;7.87;96423.16;5105826;28;20080;-77
2022/12/20 10:36:44;;;;;;;13.80;9.80;;;;;;;31.64;8.22;96417.59;5105206;28;20447;-76
2022/12/20 10:39:10;;;;;;;44.38;23.13;;;;;;;31.70;7.52;96410.50;5105270;28;20032;-77
2022/12/20 10:41:41;;;;;;;24.25;15.93;;;;;;;30.83;8.31;96412.88;5107991;28;20344;-75
2022/12/20 10:44:26;;;;;;;13.45;10.65;;;;;;;30.59;8.72;96395.91;5116540;28;20028;-77
2022/12/20 10:46:56;;;;;;;11.98;9.00;;;;;;;30.51;8.87;96400.66;5106797;28;20027;-77
2022/12/20 10:49:32;;;;;;;11.68;8.90;;;;;;;29.75;9.24;96386.31;5105807;28;20559;-77
2022/12/20 10:52:07;;;;;;;12.20;8.65;;;;;;;28.74;9.57;96391.97;5106951;28;20038;-77
2022/12/20 10:54:33;;;;;;;12.35;8.52;;;;;;;28.34;9.47;96382.94;5106431;28;20402;-77
2022/12/20 10:57:00;;;;;;;11.55;8.25;;;;;;;28.27;9.46;96375.75;5110167;28;20042;-77
2022/12/20 10:59:35;;;;;;;10.15;8.18;;;;;;;28.18;9.52;96386.56;5075772;28;20035;-76
2022/12/20 11:02:15;;;;;;;10.13;8.70;;;;;;;28.66;9.59;96386.09;5091290;28;20565;-76
2022/12/20 11:04:40;;;;;;;10.32;8.00;;;;;;;28.92;9.63;96382.09;5094758;28;20107;-76
2022/12/20 11:07:23;;;;;;;11.55;8.60;;;;;;;29.42;9.18;96375.25;5108921;28;20028;-76
2022/12/20 11:09:54;;;;;;;11.63;8.73;;;;;;;29.23;9.10;96363.84;5110478;28;20405;-76
2022/12/20 11:12:20;;;;;;;12.90;9.15;;;;;;;29.22;9.39;96367.97;5109612;28;20490;-77
2022/12/20 11:14:46;;;;;;;23.42;13.90;;;;;;;29.36;9.09;96364.78;5090858;28;20098;-75
2022/12/20 11:17:11;;;;;;;19.42;12.95;;;;;;;29.78;8.75;96365.41;5109550;28;20529;-77
2022/12/20 11:19:49;;;;;;;13.43;10.27;;;;;;;30.10;8.40;96357.03;5109858;28;20028;-78
2022/12/20 11:22:21;;;;;;;33.53;17.95;;;;;;;29.95;8.28;96351.06;5116231;28;20080;-77
2022/12/20 11:25:15;;;;;;;17.67;10.55;;;;;;;29.21;8.62;96352.28;5093144;28;20027;-77
2022/12/20 11:28:02;;;;;;;16.48;10.43;;;;;;;28.84;9.00;96348.66;5093375;28;20035;-77
2022/12/20 11:31:04;;;;;;;14.05;10.63;;;;;;;28.94;9.48;96343.50;5110796;28;20569;-77
2022/12/20 11:33:46;;;;;;;10.95;8.55;;;;;;;29.64;8.86;96343.91;5109315;28;20098;-76
2022/12/20 11:36:24;;;;;;;11.45;7.72;;;;;;;30.22;8.81;96337.84;5107810;28;20394;-76
2022/12/20 11:39:01;;;;;;;11.02;8.60;;;;;;;30.64;8.48;96335.50;5109525;28;20034;-74
2022/12/20 11:41:35;;;;;;;12.85;9.15;;;;;;;30.20;8.59;96331.94;5091505;28;20040;-77